Time;durP1;ratioP1;P1;durP2;ratioP2;P2;SDS_P1;SDS_P2;PMS_P1;PMS_P2;Temp;Humidity;BMP_temperature;BMP_pressure;BME280_temperature;BME280_humidity;BME280_pressure;Samples;Min_cycle;Max_cycle;Signal;HPM_P1;HPM_P2
2023/04/02 00:01:50;;;;;;;7.53;3.10;;;3.70;99.90;;;;;;5026303;28;20250;-58
2023/04/02 00:04:21;;;;;;;9.63;3.17;;;3.60;99.90;;;;;;5024713;28;20041;-57
2023/04/02 00:07:14;;;;;;;11.43;3.63;;;3.60;99.90;;;;;;5008655;28;21493;-57
2023/04/02 00:09:41;;;;;;;9.73;3.50;;;3.50;99.90;;;;;;5030532;28;20049;-58
2023/04/02 00:12:18;;;;;;;6.32;3.45;;;3.40;99.90;;;;;;5031002;28;20400;-58
2023/04/02 00:14:47;;;;;;;8.07;3.35;;;3.40;99.90;;;;;;5025625;28;20148;-58
2023/04/02 00:17:13;;;;;;;6.95;3.60;;;3.30;99.90;;;;;;5007158;28;20076;-58
2023/04/02 00:20:01;;;;;;;6.85;3.53;;;3.30;99.90;;;;;;5029453;28;20061;-58
2023/04/02 00:22:30;;;;;;;6.55;3.20;;;3.20;99.90;;;;;;5015341;28;20085;-58
2023/04/02 00:24:58;;;;;;;7.97;3.05;;;3.20;99.90;;;;;;5024713;28;20044;-57
2023/04/02 00:27:24;;;;;;;8.48;3.10;;;3.20;99.90;;;;;;5026191;28;20045;-58
2023/04/02 00:29:53;;;;;;;8.05;3.35;;;3.10;99.90;;;;;;5030556;28;20049;-58
2023/04/02 00:32:32;;;;;;;10.10;3.50;;;3.10;99.90;;;;;;5032503;28;20041;-58
2023/04/02 00:34:58;;;;;;;11.75;3.78;;;3.10;99.90;;;;;;5033399;28;20051;-57
2023/04/02 00:37:27;;;;;;;9.43;3.38;;;3.00;99.90;;;;;;5028746;28;20079;-58
2023/04/02 00:40:04;;;;;;;8.27;3.00;;;3.00;99.90;;;;;;5031408;28;20045;-58
2023/04/02 00:42:30;;;;;;;10.20;3.10;;;2.90;99.90;;;;;;5031876;28;20050;-57
2023/04/02 00:44:57;;;;;;;12.40;3.80;;;2.90;99.90;;;;;;5016549;28;20045;-56
2023/04/02 00:47:33;;;;;;;10.93;3.60;;;2.90;99.90;;;;;;5008245;28;20048;-56
2023/04/02 00:50:19;;;;;;;8.00;3.35;;;2.80;99.90;;;;;;5025722;28;20081;-58
2023/04/02 00:52:49;;;;;;;6.75;3.17;;;2.80;99.90;;;;;;5019949;28;20524;-58
2023/04/02 00:55:21;;;;;;;10.23;3.42;;;2.80;99.90;;;;;;5024540;28;20045;-57
2023/04/02 00:57:49;;;;;;;6.88;3.05;;;2.70;99.90;;;;;;5021754;28;20136;-57
2023/04/02 01:00:28;;;;;;;9.85;3.38;;;2.70;99.90;;;;;;5022681;28;20060;-58
2023/04/02 01:03:15;;;;;;;7.70;3.15;;;2.70;99.90;;;;;;5023760;28;20072;-57
2023/04/02 01:05:47;;;;;;;7.93;3.00;;;2.60;99.90;;;;;;5029219;28;20037;-57
2023/04/02 01:08:33;;;;;;;6.60;3.13;;;2.60;99.90;;;;;;5024528;28;20419;-57
2023/04/02 01:11:20;;;;;;;7.70;3.20;;;2.60;99.90;;;;;;4997795;28;20049;-57
2023/04/02 01:13:54;;;;;;;10.30;2.75;;;2.50;99.90;;;;;;5021499;28;20050;-57
2023/04/02 01:16:36;;;;;;;6.70;2.97;;;2.50;99.90;;;;;;5019281;28;20099;-57
2023/04/02 01:19:12;;;;;;;6.18;3.00;;;2.40;99.90;;;;;;5025320;28;20060;-58
2023/04/02 01:22:07;;;;;;;8.25;3.42;;;2.40;99.90;;;;;;5027300;28;20569;-57
2023/04/02 01:24:36;;;;;;;6.45;3.10;;;2.40;99.90;;;;;;4990773;28;20053;-58
2023/04/02 01:27:31;;;;;;;6.32;2.92;;;2.40;99.90;;;;;;5025454;28;20052;-57
2023/04/02 01:29:59;;;;;;;11.02;2.60;;;2.40;99.90;;;;;;5019030;28;20036;-57
2023/04/02 01:32:27;;;;;;;6.60;2.55;;;2.30;99.90;;;;;;5002144;28;20200;-55
2023/04/02 01:34:54;;;;;;;5.50;2.70;;;2.30;99.90;;;;;;5023362;28;20195;-57
2023/04/02 01:38:03;;;;;;;6.80;2.78;;;2.30;99.90;;;;;;5027838;28;20121;-57
2023/04/02 01:40:38;;;;;;;5.85;2.80;;;2.20;99.90;;;;;;5022711;28;20093;-57
2023/04/02 01:43:04;;;;;;;4.75;2.50;;;2.20;99.90;;;;;;5023914;28;20806;-58
2023/04/02 01:45:30;;;;;;;6.57;2.90;;;2.20;99.90;;;;;;5025263;28;20080;-58
2023/04/02 01:47:55;;;;;;;8.05;2.55;;;2.10;99.90;;;;;;5025593;28;20095;-57
2023/04/02 01:50:30;;;;;;;5.30;2.70;;;2.10;99.90;;;;;;5001731;28;20076;-56
2023/04/02 01:53:02;;;;;;;4.45;2.50;;;2.10;99.90;;;;;;5005803;28;20048;-57
2023/04/02 01:55:42;;;;;;;8.77;2.90;;;2.10;99.90;;;;;;5021771;28;20029;-57
2023/04/02 01:58:10;;;;;;;5.70;2.58;;;2.00;99.90;;;;;;5007331;28;20064;-58
2023/04/02 02:00:44;;;;;;;5.03;2.47;;;2.00;99.90;;;;;;5021106;28;20123;-57
2023/04/02 02:03:11;;;;;;;13.98;2.60;;;2.00;99.90;;;;;;5005231;28;20080;-58
2023/04/02 02:05:37;;;;;;;7.57;2.58;;;2.00;99.90;;;;;;5027417;28;20073;-57
2023/04/02 02:08:04;;;;;;;8.52;3.08;;;2.00;99.90;;;;;;5027090;28;20077;-57
2023/04/02 02:10:37;;;;;;;4.25;2.53;;;1.90;99.90;;;;;;5009034;28;20080;-58
2023/04/02 02:13:03;;;;;;;6.65;2.20;;;1.90;99.90;;;;;;5006127;28;20045;-57
2023/04/02 02:15:32;;;;;;;8.93;2.53;;;1.90;99.90;;;;;;5022837;28;20063;-58
2023/04/02 02:18:02;;;;;;;8.82;2.90;;;1.80;99.90;;;;;;5020493;28;20037;-57
2023/04/02 02:20:28;;;;;;;5.82;2.30;;;1.80;99.90;;;;;;5021795;28;20049;-56
2023/04/02 02:22:56;;;;;;;7.07;2.85;;;1.80;99.90;;;;;;5021297;28;20096;-56
2023/04/02 02:25:26;;;;;;;8.95;2.55;;;1.80;99.90;;;;;;5022313;28;20472;-57
2023/04/02 02:28:06;;;;;;;8.80;2.50;;;1.70;99.90;;;;;;5002064;28;20073;-56
2023/04/02 02:30:52;;;;;;;7.80;2.42;;;1.70;99.90;;;;;;5022367;28;20499;-58
2023/04/02 02:33:31;;;;;;;5.28;2.50;;;1.70;99.90;;;;;;5019564;28;20038;-56
2023/04/02 02:36:16;;;;;;;4.63;2.22;;;1.70;99.90;;;;;;5025111;28;20120;-55
2023/04/02 02:38:52;;;;;;;6.65;2.13;;;1.60;99.90;;;;;;5020239;28;20053;-57
2023/04/02 02:41:32;;;;;;;6.93;2.10;;;1.60;99.90;;;;;;5019536;28;20530;-57
2023/04/02 02:44:04;;;;;;;6.10;2.40;;;1.60;99.90;;;;;;5018919;28;20472;-56
2023/04/02 02:46:32;;;;;;;6.45;2.30;;;1.60;99.90;;;;;;5019524;28;20115;-56
2023/04/02 02:49:00;;;;;;;5.78;2.30;;;1.50;99.90;;;;;;5003195;28;20045;-56
2023/04/02 02:51:42;;;;;;;7.55;1.90;;;1.50;99.90;;;;;;5020866;28;20522;-56
2023/04/02 02:54:08;;;;;;;5.78;2.45;;;1.50;99.90;;;;;;5017569;28;20051;-56
2023/04/02 02:56:40;;;;;;;15.80;3.33;;;1.50;99.90;;;;;;5022369;28;20034;-55
2023/04/02 02:59:08;;;;;;;8.27;2.20;;;1.50;99.90;;;;;;5006215;28;20045;-57
2023/04/02 03:01:34;;;;;;;5.43;2.10;;;1.40;99.90;;;;;;4986770;28;20060;-57
2023/04/02 03:04:01;;;;;;;9.57;2.50;;;1.40;99.90;;;;;;5018333;28;20060;-58
2023/04/02 03:06:27;;;;;;;8.13;2.30;;;1.40;99.90;;;;;;5001443;28;20057;-56
2023/04/02 03:09:09;;;;;;;5.60;2.10;;;1.40;99.90;;;;;;4999350;28;20426;-57
2023/04/02 03:11:58;;;;;;;3.65;1.90;;;1.40;99.90;;;;;;5021162;28;20060;-57
2023/04/02 03:14:52;;;;;;;8.23;2.33;;;1.30;99.90;;;;;;5015241;28;20041;-56
2023/04/02 03:17:45;;;;;;;11.93;3.03;;;1.30;99.90;;;;;;5003975;28;20049;-56
2023/04/02 03:20:23;;;;;;;5.20;2.17;;;1.30;99.90;;;;;;5022150;28;20393;-56
2023/04/02 03:23:00;;;;;;;6.35;2.20;;;1.30;99.90;;;;;;5024550;28;20037;-56
2023/04/02 03:25:26;;;;;;;8.65;3.00;;;1.30;99.90;;;;;;5027966;28;20399;-56
2023/04/02 03:27:58;;;;;;;5.80;2.38;;;1.30;99.90;;;;;;5023327;28;20049;-56
2023/04/02 03:30:35;;;;;;;7.22;2.40;;;1.20;99.90;;;;;;5024047;28;20403;-55
2023/04/02 03:33:20;;;;;;;8.30;2.33;;;1.20;99.90;;;;;;5019965;28;20936;-56
2023/04/02 03:35:58;;;;;;;8.68;2.28;;;1.20;99.90;;;;;;5020702;28;20369;-55
2023/04/02 03:38:26;;;;;;;6.45;2.25;;;1.20;99.90;;;;;;5004617;28;20971;-57
2023/04/02 03:41:14;;;;;;;6.97;2.42;;;1.20;99.90;;;;;;5021523;28;20047;-54
2023/04/02 03:43:44;;;;;;;7.95;2.10;;;1.20;99.90;;;;;;5003103;28;20037;-56
2023/04/02 03:46:37;;;;;;;9.82;2.10;;;1.20;99.90;;;;;;5027206;28;20041;-54
2023/04/02 03:49:12;;;;;;;13.07;2.30;;;1.20;99.90;;;;;;5013464;28;20046;-56
2023/04/02 03:52:10;;;;;;;8.73;2.65;;;1.20;99.90;;;;;;5020219;28;20046;-56
2023/04/02 03:54:37;;;;;;;6.00;2.50;;;1.20;99.90;;;;;;5019322;28;20103;-55
2023/04/02 03:57:04;;;;;;;8.57;2.50;;;1.20;99.90;;;;;;5022583;28;20091;-57
2023/04/02 03:59:47;;;;;;;9.23;2.10;;;1.10;99.90;;;;;;5019269;28;20065;-56
2023/04/02 04:02:25;;;;;;;;;;;1.10;99.90;;;;;;5002826;28;20048;-56
2023/04/02 04:04:53;;;;;;;14.60;2.25;;;1.10;99.90;;;;;;5017364;28;19963;-53
2023/04/02 04:07:29;;;;;;;7.60;2.08;;;1.10;99.90;;;;;;5020871;28;20045;-54
2023/04/02 04:09:57;;;;;;;5.22;2.08;;;1.10;99.90;;;;;;5000146;28;20485;-54
2023/04/02 04:12:29;;;;;;;6.28;2.20;;;1.10;99.90;;;;;;5019302;28;20080;-55
2023/04/02 04:15:06;;;;;;;5.88;2.13;;;1.10;99.90;;;;;;5021716;28;20361;-56
2023/04/02 04:17:52;;;;;;;7.05;2.03;;;1.00;99.90;;;;;;5019556;28;20049;-55
2023/04/02 04:20:28;;;;;;;5.72;2.25;;;1.00;99.90;;;;;;5001999;28;20048;-56
2023/04/02 04:22:54;;;;;;;6.57;1.80;;;1.00;99.90;;;;;;5003906;28;20048;-54
2023/04/02 04:25:29;;;;;;;6.95;2.13;;;1.00;99.90;;;;;;5019285;28;20045;-53
2023/04/02 04:28:19;;;;;;;9.10;2.10;;;1.00;99.90;;;;;;5020098;28;21746;-56
2023/04/02 04:30:58;;;;;;;7.20;1.88;;;1.00;99.90;;;;;;5004003;28;20057;-53
2023/04/02 04:33:38;;;;;;;6.60;2.05;;;1.00;99.90;;;;;;5000609;28;20041;-56
2023/04/02 04:36:17;;;;;;;8.00;2.28;;;1.00;99.90;;;;;;5020157;28;20064;-57
2023/04/02 04:38:54;;;;;;;10.02;1.80;;;1.00;99.90;;;;;;5006687;28;20076;-57
2023/04/02 04:41:31;;;;;;;8.35;1.90;;;1.00;99.90;;;;;;4996173;28;20103;-56
2023/04/02 04:44:11;;;;;;;8.25;2.95;;;1.00;99.90;;;;;;5017417;28;20646;-55
2023/04/02 04:46:43;;;;;;;5.88;2.10;;;1.00;99.90;;;;;;5017170;28;20076;-57
2023/04/02 04:49:18;;;;;;;6.97;2.15;;;1.00;99.90;;;;;;5002746;28;20095;-56
2023/04/02 04:52:04;;;;;;;6.63;1.90;;;1.00;99.90;;;;;;5016811;28;20046;-54
2023/04/02 04:54:30;;;;;;;10.15;1.98;;;1.00;99.90;;;;;;5018868;28;20061;-57
2023/04/02 04:57:00;;;;;;;6.13;1.90;;;1.00;99.90;;;;;;5023519;28;20099;-54
2023/04/02 04:59:32;;;;;;;4.97;2.10;;;1.00;99.90;;;;;;5003599;28;20050;-54
2023/04/02 05:02:09;;;;;;;5.85;2.13;;;0.90;99.90;;;;;;5005574;28;20048;-55
2023/04/02 05:04:38;;;;;;;7.45;1.60;;;0.90;99.90;;;;;;5019968;28;20563;-55
2023/04/02 05:07:08;;;;;;;5.13;1.77;;;0.90;99.90;;;;;;5002517;28;20045;-57
2023/04/02 05:09:41;;;;;;;6.32;2.03;;;0.90;99.90;;;;;;5021777;28;20152;-56
2023/04/02 05:12:39;;;;;;;9.07;1.90;;;0.90;99.90;;;;;;5024198;28;20045;-57
2023/04/02 05:15:27;;;;;;;5.95;1.70;;;1.00;99.90;;;;;;4962218;28;20057;-57
2023/04/02 05:17:53;;;;;;;5.55;1.80;;;0.90;99.90;;;;;;5002383;28;20474;-55
2023/04/02 05:20:27;;;;;;;5.68;1.92;;;0.90;99.90;;;;;;5029207;28;20141;-57
2023/04/02 05:23:09;;;;;;;7.25;2.05;;;0.90;99.90;;;;;;5027676;28;20516;-53
2023/04/02 05:25:36;;;;;;;9.35;2.65;;;0.90;99.90;;;;;;5030220;28;20124;-57
2023/04/02 05:28:18;;;;;;;7.32;1.95;;;0.90;99.90;;;;;;5025843;28;20188;-55
2023/04/02 05:31:07;;;;;;;7.03;2.10;;;0.90;99.90;;;;;;4999531;28;20188;-57
2023/04/02 05:33:35;;;;;;;5.55;1.60;;;0.90;99.90;;;;;;5031594;28;20493;-56
2023/04/02 05:36:10;;;;;;;9.45;1.98;;;0.90;99.90;;;;;;5027467;28;20045;-56
2023/04/02 05:38:42;;;;;;;7.40;2.30;;;0.90;99.90;;;;;;5025368;28;20045;-55
2023/04/02 05:41:17;;;;;;;6.43;1.90;;;0.90;99.90;;;;;;5024540;28;20077;-55
2023/04/02 05:43:47;;;;;;;8.02;2.33;;;0.90;99.90;;;;;;5031154;28;20545;-57
2023/04/02 05:46:26;;;;;;;5.68;1.83;;;0.90;99.90;;;;;;5014601;28;20038;-57
2023/04/02 05:48:57;;;;;;;4.68;1.83;;;0.90;99.90;;;;;;5016126;28;20053;-57
2023/04/02 05:51:45;;;;;;;7.53;1.77;;;1.00;99.90;;;;;;5030087;28;20049;-54
2023/04/02 05:54:26;;;;;;;7.85;1.83;;;1.00;99.90;;;;;;5021654;28;20500;-57
2023/04/02 05:57:01;;;;;;;8.60;2.15;;;1.10;99.90;;;;;;5004387;28;20053;-57
2023/04/02 05:59:38;;;;;;;5.38;2.20;;;1.10;99.90;;;;;;5023341;28;20046;-56
2023/04/02 06:02:30;;;;;;;4.97;1.80;;;1.10;99.90;;;;;;5017762;28;20033;-54
2023/04/02 06:05:11;;;;;;;5.88;2.15;;;1.10;99.90;;;;;;5020413;28;20045;-58
2023/04/02 06:08:02;;;;;;;8.88;2.22;;;1.20;99.90;;;;;;4993437;28;20036;-57
2023/04/02 06:10:32;;;;;;;7.75;2.50;;;1.20;99.90;;;;;;5021837;28;20095;-55
2023/04/02 06:13:02;;;;;;;7.85;2.20;;;1.20;99.90;;;;;;5017753;28;20144;-56
2023/04/02 06:15:29;;;;;;;8.50;2.25;;;1.20;99.90;;;;;;5021192;28;20090;-58
2023/04/02 06:17:59;;;;;;;8.90;2.40;;;1.20;99.90;;;;;;5003048;28;20053;-56
2023/04/02 06:20:26;;;;;;;7.70;2.15;;;1.20;99.90;;;;;;5019976;28;20087;-56
2023/04/02 06:23:00;;;;;;;5.72;2.22;;;1.30;99.90;;;;;;5004193;28;20070;-57
2023/04/02 06:25:47;;;;;;;6.32;2.00;;;1.30;99.90;;;;;;5020552;28;20049;-55
2023/04/02 06:29:00;;;;;;;9.35;2.58;;;1.30;99.90;;;;;;5016281;28;20053;-56
2023/04/02 06:31:39;;;;;;;4.95;2.20;;;1.40;99.90;;;;;;4937029;28;20047;-55
2023/04/02 06:34:12;;;;;;;6.97;2.03;;;1.40;99.90;;;;;;4938051;28;20090;-57
2023/04/02 06:36:39;;;;;;;6.38;2.00;;;1.40;99.90;;;;;;4988115;28;20135;-57
2023/04/02 06:39:10;;;;;;;9.70;1.98;;;1.50;99.90;;;;;;5021020;28;20122;-57
2023/04/02 06:41:36;;;;;;;5.82;2.20;;;1.50;99.90;;;;;;5022190;28;20135;-57
2023/04/02 06:44:10;;;;;;;10.63;2.10;;;1.50;99.90;;;;;;5018185;28;20119;-57
2023/04/02 06:46:45;;;;;;;7.15;1.98;;;1.60;99.90;;;;;;5022014;28;20044;-54
2023/04/02 06:49:24;;;;;;;4.05;1.77;;;1.60;99.90;;;;;;5009080;28;20041;-56
2023/04/02 06:51:53;;;;;;;7.22;2.05;;;1.70;99.90;;;;;;5010289;28;20131;-56
2023/04/02 06:54:19;;;;;;;4.82;1.92;;;1.80;99.90;;;;;;5022387;28;20037;-56
2023/04/02 06:56:50;;;;;;;8.40;1.98;;;1.80;99.90;;;;;;5022829;28;20132;-56
2023/04/02 06:59:18;;;;;;;7.70;2.05;;;1.90;99.90;;;;;;5021848;28;20138;-56
2023/04/02 07:02:08;;;;;;;4.72;1.80;;;2.00;99.90;;;;;;5001164;28;20047;-56
2023/04/02 07:04:34;;;;;;;4.65;1.65;;;2.10;99.90;;;;;;4997679;28;20045;-57
2023/04/02 07:07:00;;;;;;;10.38;2.53;;;2.20;99.90;;;;;;5017495;28;20373;-55
2023/04/02 07:09:25;;;;;;;5.55;2.13;;;2.30;99.90;;;;;;5015820;28;20057;-56
2023/04/02 07:11:51;;;;;;;4.68;1.90;;;2.30;99.90;;;;;;5017045;28;20060;-56
2023/04/02 07:14:17;;;;;;;6.00;2.13;;;2.40;99.90;;;;;;4994363;28;20045;-56
2023/04/02 07:16:43;;;;;;;4.60;1.55;;;2.40;99.90;;;;;;5001806;28;20174;-55
2023/04/02 07:19:18;;;;;;;3.38;1.80;;;2.60;99.90;;;;;;5015593;28;20049;-56
2023/04/02 07:21:45;;;;;;;6.78;1.73;;;2.60;99.90;;;;;;5016336;28;20681;-57
2023/04/02 07:24:11;;;;;;;3.63;1.48;;;2.70;99.90;;;;;;5020610;28;20049;-57
2023/04/02 07:26:37;;;;;;;3.70;1.65;;;2.80;99.90;;;;;;5021545;28;20385;-54
2023/04/02 07:29:06;;;;;;;3.50;1.40;;;2.90;99.90;;;;;;5017590;28;20115;-57
2023/04/02 07:31:32;;;;;;;5.88;1.50;;;3.00;99.90;;;;;;4998175;28;20063;-58
2023/04/02 07:33:59;;;;;;;4.38;1.73;;;3.10;99.90;;;;;;4997527;28;20053;-56
2023/04/02 07:36:26;;;;;;;4.28;1.85;;;3.20;99.90;;;;;;5017040;28;20052;-57
2023/04/02 07:38:53;;;;;;;4.18;1.50;;;3.20;99.90;;;;;;5014244;28;20048;-58
2023/04/02 07:41:20;;;;;;;6.32;1.55;;;3.30;99.90;;;;;;5017851;28;20052;-57
2023/04/02 07:43:46;;;;;;;3.22;1.55;;;3.40;99.90;;;;;;5015036;28;20079;-57
2023/04/02 07:46:15;;;;;;;7.65;1.83;;;3.40;99.90;;;;;;4999599;28;20037;-58
2023/04/02 07:48:41;;;;;;;4.80;1.77;;;3.50;99.90;;;;;;5018457;28;20099;-56
2023/04/02 07:51:21;;;;;;;6.32;1.40;;;3.50;99.90;;;;;;5019450;28;20201;-57
2023/04/02 07:53:54;;;;;;;5.03;1.50;;;3.60;99.90;;;;;;4998505;28;20550;-58
2023/04/02 07:56:21;;;;;;;6.70;1.67;;;3.60;99.90;;;;;;5017096;28;20041;-56
2023/04/02 07:58:47;;;;;;;5.85;1.42;;;3.70;99.90;;;;;;5009952;28;20054;-57
2023/04/02 08:01:19;;;;;;;5.38;1.30;;;3.80;99.90;;;;;;5017447;28;20057;-55
2023/04/02 08:03:46;;;;;;;7.17;2.00;;;3.80;99.90;;;;;;5015052;28;20119;-57
2023/04/02 08:06:12;;;;;;;6.50;1.90;;;3.80;99.90;;;;;;5017802;28;20216;-58
2023/04/02 08:08:38;;;;;;;6.00;1.98;;;3.80;99.90;;;;;;5011604;28;20861;-57
2023/04/02 08:11:04;;;;;;;6.03;1.67;;;3.80;99.90;;;;;;5012852;28;20053;-56
2023/04/02 08:13:30;;;;;;;4.55;1.95;;;3.90;99.90;;;;;;5012036;28;20480;-57
2023/04/02 08:16:01;;;;;;;8.32;1.92;;;4.00;99.90;;;;;;5017938;28;20115;-57
2023/04/02 08:18:28;;;;;;;5.35;1.80;;;4.10;99.90;;;;;;5016865;28;20099;-56
2023/04/02 08:20:54;;;;;;;4.15;1.45;;;4.20;99.90;;;;;;5021231;28;20037;-57
2023/04/02 08:23:21;;;;;;;5.60;1.52;;;4.30;99.90;;;;;;5013051;28;20060;-55
2023/04/02 08:25:47;;;;;;;3.97;1.35;;;4.40;99.90;;;;;;5001505;28;20049;-58
2023/04/02 08:28:13;;;;;;;4.75;1.60;;;4.40;99.90;;;;;;5013645;28;20045;-55
2023/04/02 08:30:39;;;;;;;2.72;1.40;;;4.40;99.90;;;;;;5005810;28;20161;-57
2023/04/02 08:33:05;;;;;;;3.10;1.55;;;4.40;99.90;;;;;;4987710;28;21004;-57
2023/04/02 08:35:31;;;;;;;3.53;1.45;;;4.50;99.90;;;;;;4982078;28;20071;-57
2023/04/02 08:37:57;;;;;;;9.63;1.50;;;4.60;99.90;;;;;;4995278;28;20073;-57
2023/04/02 08:40:23;;;;;;;4.38;1.60;;;4.70;99.90;;;;;;5016538;28;20049;-57
2023/04/02 08:43:02;;;;;;;4.30;1.80;;;4.80;99.90;;;;;;5013614;28;20067;-57
2023/04/02 08:45:40;;;;;;;4.13;1.42;;;4.90;99.90;;;;;;5013390;28;20058;-57
2023/04/02 08:48:09;;;;;;;4.72;1.70;;;4.90;99.90;;;;;;5015920;28;20130;-55
2023/04/02 08:50:39;;;;;;;5.47;1.65;;;4.90;99.90;;;;;;5014694;28;20077;-56
2023/04/02 08:53:19;;;;;;;8.02;1.75;;;4.90;99.90;;;;;;4986706;28;20132;-54
2023/04/02 08:56:04;;;;;;;4.95;1.65;;;4.90;99.90;;;;;;5017553;28;20061;-57
2023/04/02 08:58:40;;;;;;;5.55;1.45;;;5.00;99.90;;;;;;5022891;28;20056;-58
2023/04/02 09:01:19;;;;;;;3.60;1.55;;;5.20;99.90;;;;;;5022514;28;20052;-56
2023/04/02 09:03:48;;;;;;;5.88;2.05;;;5.40;99.90;;;;;;5025726;28;20484;-57
2023/04/02 09:06:18;;;;;;;4.55;1.75;;;5.50;99.90;;;;;;5009958;28;20480;-57
2023/04/02 09:08:47;;;;;;;6.53;1.52;;;5.60;99.90;;;;;;5005584;28;20050;-56
2023/04/02 09:11:40;;;;;;;7.80;1.50;;;5.80;99.90;;;;;;5023536;28;20072;-57
2023/04/02 09:14:17;;;;;;;5.07;1.45;;;6.00;99.90;;;;;;5020334;28;20128;-56
2023/04/02 09:16:50;;;;;;;4.43;1.58;;;6.20;99.90;;;;;;5011861;28;20057;-57
2023/04/02 09:19:25;;;;;;;3.95;1.50;;;6.30;99.90;;;;;;4999789;28;20080;-56
2023/04/02 09:22:08;;;;;;;4.35;1.58;;;6.40;99.90;;;;;;5016417;28;20064;-59
2023/04/02 09:24:36;;;;;;;2.88;1.15;;;6.40;99.90;;;;;;4976659;28;20151;-61
2023/04/02 09:27:02;;;;;;;2.05;1.20;;;6.60;99.90;;;;;;4998139;28;20096;-62
2023/04/02 09:29:45;;;;;;;6.72;1.30;;;6.60;99.90;;;;;;5022258;28;20133;-61
2023/04/02 09:32:31;;;;;;;4.10;1.40;;;6.70;99.90;;;;;;5008549;28;20396;-61
2023/04/02 09:35:11;;;;;;;5.03;1.30;;;6.70;99.90;;;;;;4996615;28;20041;-61
2023/04/02 09:37:38;;;;;;;4.13;1.40;;;6.80;99.90;;;;;;5015877;28;20046;-62
2023/04/02 09:40:45;;;;;;;5.63;1.42;;;6.90;99.90;;;;;;5007853;28;20053;-60
2023/04/02 09:43:17;;;;;;;5.15;1.20;;;7.00;99.90;;;;;;5006018;28;20496;-61
2023/04/02 09:45:53;;;;;;;3.50;1.17;;;7.10;99.90;;;;;;5008629;28;20041;-60
2023/04/02 09:48:32;;;;;;;2.95;1.20;;;7.30;99.90;;;;;;5007546;28;20131;-61
2023/04/02 09:51:10;;;;;;;1.40;0.90;;;7.30;99.90;;;;;;5027250;28;20488;-61
2023/04/02 09:53:40;;;;;;;3.72;1.40;;;7.40;99.90;;;;;;5028022;28;20042;-61
2023/04/02 09:56:06;;;;;;;3.53;1.45;;;7.50;99.90;;;;;;5025064;28;20458;-61
2023/04/02 09:58:32;;;;;;;4.65;1.50;;;7.60;99.90;;;;;;4994851;28;20057;-61
2023/04/02 10:00:59;;;;;;;4.93;1.30;;;7.70;99.90;;;;;;5025206;28;20572;-61
2023/04/02 10:03:27;;;;;;;2.45;1.00;;;7.80;99.90;;;;;;5007188;28;20399;-61
2023/04/02 10:06:04;;;;;;;4.40;1.35;;;7.80;99.90;;;;;;5007463;28;20045;-61
2023/04/02 10:08:30;;;;;;;2.45;1.20;;;7.90;99.90;;;;;;5025460;28;20443;-61
2023/04/02 10:11:00;;;;;;;5.22;1.38;;;8.00;99.90;;;;;;5026278;28;20041;-61
2023/04/02 10:13:47;;;;;;;2.90;1.30;;;8.00;99.90;;;;;;5007959;28;20055;-61
2023/04/02 10:16:18;;;;;;;3.00;1.05;;;8.10;99.90;;;;;;5010974;28;20163;-62
2023/04/02 10:18:57;;;;;;;2.25;1.15;;;8.20;99.90;;;;;;5027868;28;20085;-61
2023/04/02 10:21:31;;;;;;;3.92;1.33;;;8.30;99.90;;;;;;5008562;28;20124;-61
2023/04/02 10:23:58;;;;;;;4.25;1.30;;;8.40;99.90;;;;;;5008436;28;20518;-61
2023/04/02 10:27:03;;;;;;;3.20;1.23;;;8.50;99.90;;;;;;5010207;28;20124;-61
2023/04/02 10:29:52;;;;;;;4.95;1.10;;;8.70;99.90;;;;;;5022268;28;20073;-61
2023/04/02 10:32:43;;;;;;;6.28;1.20;;;8.70;99.90;;;;;;5008330;28;20051;-61
2023/04/02 10:35:35;;;;;;;3.42;1.00;;;8.80;99.90;;;;;;5012550;28;20850;-60
2023/04/02 10:38:38;;;;;;;2.55;1.02;;;8.90;99.90;;;;;;5005511;28;20099;-61
2023/04/02 10:41:17;;;;;;;;;;;9.00;99.90;;;;;;5021645;28;20168;-61
2023/04/02 10:43:47;;;;;;;1.73;1.00;;;9.10;99.90;;;;;;5006201;28;20018;-61
2023/04/02 10:46:26;;;;;;;4.28;1.27;;;9.10;99.90;;;;;;5012782;28;20045;-60
2023/04/02 10:49:12;;;;;;;3.13;1.10;;;9.20;99.80;;;;;;5027096;28;20127;-62
2023/04/02 10:51:54;;;;;;;4.93;1.15;;;9.20;99.60;;;;;;5008253;28;20086;-61
2023/04/02 10:54:40;;;;;;;4.97;0.90;;;9.30;99.20;;;;;;5005487;28;20057;-62
2023/04/02 10:57:38;;;;;;;2.90;1.13;;;9.40;99.20;;;;;;4995055;28;20053;-62
2023/04/02 11:00:11;;;;;;;2.58;1.08;;;9.50;98.50;;;;;;5009224;28;20054;-61
2023/04/02 11:02:55;;;;;;;2.20;0.90;;;9.60;98.80;;;;;;5009463;28;20045;-62
2023/04/02 11:05:52;;;;;;;8.88;1.10;;;9.60;98.80;;;;;;5008021;28;20049;-61
2023/04/02 11:08:39;;;;;;;2.05;0.90;;;9.80;98.90;;;;;;5011858;28;20057;-62
2023/04/02 11:11:13;;;;;;;2.28;1.02;;;9.90;97.90;;;;;;5007956;28;21248;-61
2023/04/02 11:13:48;;;;;;;1.90;1.02;;;9.90;97.70;;;;;;5024991;28;20041;-62
2023/04/02 11:16:14;;;;;;;4.93;0.82;;;9.90;97.60;;;;;;5008168;28;20049;-62
2023/04/02 11:18:40;;;;;;;3.83;1.08;;;10.00;97.70;;;;;;4992498;28;20092;-62
2023/04/02 11:21:28;;;;;;;6.15;1.30;;;10.10;97.90;;;;;;5009365;28;20061;-62
2023/04/02 11:23:59;;;;;;;1.92;0.90;;;10.20;97.80;;;;;;4995730;28;20061;-62
2023/04/02 11:26:34;;;;;;;2.40;0.93;;;10.20;97.10;;;;;;5007643;28;20154;-62
2023/04/02 11:29:23;;;;;;;2.58;0.80;;;10.20;97.80;;;;;;5008556;28;20056;-62
2023/04/02 11:32:09;;;;;;;3.20;1.05;;;10.40;97.10;;;;;;4992541;28;20057;-62
2023/04/02 11:34:57;;;;;;;4.25;1.05;;;10.40;95.70;;;;;;5005598;28;20063;-61
2023/04/02 11:37:35;;;;;;;5.03;1.20;;;10.40;96.00;;;;;;5026788;28;20551;-62
2023/04/02 11:40:14;;;;;;;4.40;0.90;;;10.50;96.40;;;;;;5009838;28;20049;-62
2023/04/02 11:43:04;;;;;;;3.90;0.95;;;10.60;96.20;;;;;;4988369;28;20053;-62
2023/04/02 11:45:29;;;;;;;2.15;0.88;;;10.70;96.10;;;;;;5002680;28;20053;-62
2023/04/02 11:47:58;;;;;;;3.85;1.00;;;10.80;95.50;;;;;;5024891;28;20040;-62
2023/04/02 11:50:37;;;;;;;1.80;0.70;;;11.00;95.20;;;;;;5010426;28;20049;-62
2023/04/02 11:53:10;;;;;;;2.33;0.82;;;11.10;93.20;;;;;;5008489;28;20532;-62
2023/04/02 11:55:41;;;;;;;2.85;0.90;;;11.10;93.00;;;;;;5011420;28;20060;-62
2023/04/02 11:58:45;;;;;;;4.57;1.20;;;11.10;93.80;;;;;;5013667;28;20053;-62
2023/04/02 12:01:17;;;;;;;;;;;11.30;93.20;;;;;;5013759;28;20491;-62
2023/04/02 12:03:46;;;;;;;2.55;0.90;;;11.30;93.60;;;;;;5011674;28;19990;-62
2023/04/02 12:06:28;;;;;;;3.25;0.90;;;11.30;92.00;;;;;;4993994;28;20381;-62
2023/04/02 12:09:26;;;;;;;2.20;0.90;;;11.50;91.30;;;;;;5030292;28;20410;-62
2023/04/02 12:12:13;;;;;;;2.28;0.93;;;11.60;91.50;;;;;;5014335;28;20111;-63
2023/04/02 12:14:52;;;;;;;2.70;0.80;;;11.70;91.90;;;;;;5023430;28;20063;-62
2023/04/02 12:17:27;;;;;;;2.38;0.88;;;11.80;90.70;;;;;;5010829;28;20509;-62
2023/04/02 12:19:57;;;;;;;2.53;1.00;;;11.80;90.50;;;;;;5011119;28;20049;-62
2023/04/02 12:22:29;;;;;;;2.35;0.95;;;11.80;89.90;;;;;;5030778;28;20045;-62
2023/04/02 12:25:19;;;;;;;3.38;1.10;;;11.80;89.50;;;;;;5022874;28;20104;-62
2023/04/02 12:27:45;;;;;;;4.53;1.02;;;11.90;89.70;;;;;;5023062;28;20038;-62
2023/04/02 12:30:21;;;;;;;2.47;1.00;;;11.90;89.60;;;;;;4974105;28;1151235;-62
2023/04/02 12:32:47;;;;;;;1.77;0.90;;;11.90;89.20;;;;;;5014421;28;20049;-62
2023/04/02 12:35:33;;;;;;;2.92;1.20;;;11.90;85.00;;;;;;5012897;28;20053;-62
2023/04/02 12:37:59;;;;;;;2.20;0.93;;;11.80;85.30;;;;;;5012705;28;20159;-62
2023/04/02 12:40:27;;;;;;;3.90;0.98;;;11.90;87.40;;;;;;5011945;28;20048;-62
2023/04/02 12:42:53;;;;;;;2.03;0.82;;;12.00;87.30;;;;;;4993290;28;20132;-62
2023/04/02 12:45:27;;;;;;;2.42;0.88;;;12.10;86.10;;;;;;5009287;28;20053;-62
2023/04/02 12:47:53;;;;;;;1.60;0.88;;;12.10;86.50;;;;;;5016394;28;20399;-62
2023/04/02 12:50:21;;;;;;;1.60;0.90;;;12.20;85.60;;;;;;5005219;28;20049;-62
2023/04/02 12:52:50;;;;;;;1.50;0.70;;;12.20;85.20;;;;;;5012777;28;20586;-63
2023/04/02 12:55:25;;;;;;;1.52;0.85;;;12.20;84.60;;;;;;4992083;28;20053;-63
2023/04/02 12:57:55;;;;;;;1.75;0.82;;;12.20;85.40;;;;;;5024091;28;20060;-63
2023/04/02 13:00:21;;;;;;;3.47;1.30;;;12.20;85.40;;;;;;5029610;28;20486;-63
2023/04/02 13:02:51;;;;;;;2.97;0.98;;;12.30;85.10;;;;;;5011259;28;20041;-63
2023/04/02 13:05:45;;;;;;;1.70;0.75;;;12.40;85.10;;;;;;5027269;28;20414;-63
2023/04/02 13:08:23;;;;;;;2.72;0.82;;;12.50;84.60;;;;;;5012949;28;20061;-63
2023/04/02 13:10:56;;;;;;;2.50;1.10;;;12.60;85.20;;;;;;5009410;28;20057;-63
2023/04/02 13:13:34;;;;;;;2.35;1.23;;;12.50;84.90;;;;;;5012632;28;20052;-63
2023/04/02 13:16:18;;;;;;;2.78;1.10;;;12.50;84.70;;;;;;4995601;28;20051;-63
2023/04/02 13:18:46;;;;;;;3.10;1.00;;;12.30;84.30;;;;;;5007462;28;20403;-63
2023/04/02 13:21:28;;;;;;;2.05;0.90;;;12.20;84.40;;;;;;5028094;28;20072;-63
2023/04/02 13:23:54;;;;;;;2.90;1.20;;;12.10;85.80;;;;;;5010400;28;20050;-63
2023/04/02 13:26:28;;;;;;;3.20;0.95;;;12.10;85.60;;;;;;5012738;28;20757;-63
2023/04/02 13:28:55;;;;;;;2.60;0.80;;;11.90;82.20;;;;;;5010451;28;20052;-63
2023/04/02 13:31:21;;;;;;;1.65;0.73;;;11.70;85.50;;;;;;5012460;28;20065;-63
2023/04/02 13:33:46;;;;;;;2.33;1.10;;;11.70;86.50;;;;;;5006234;28;20423;-63
2023/04/02 13:36:13;;;;;;;3.15;1.02;;;11.70;85.50;;;;;;5026510;28;20130;-63